sensor_id;sensor_type;location;lat;lon;timestamp;P1;durP1;ratioP1;P2;durP2;ratioP2
20336;SDS011;10326;53.660;10.200;2023-05-07T00:00:50;9.07;;;8.27;;
20336;SDS011;10326;53.660;10.200;2023-05-07T00:03:17;8.98;;;8.07;;
20336;SDS011;10326;53.660;10.200;2023-05-07T00:05:45;8.80;;;7.93;;
20336;SDS011;10326;53.660;10.200;2023-05-07T00:08:13;9.93;;;8.77;;
20336;SDS011;10326;53.660;10.200;2023-05-07T00:10:42;8.85;;;8.02;;
20336;SDS011;10326;53.660;10.200;2023-05-07T00:13:09;8.75;;;7.95;;
20336;SDS011;10326;53.660;10.200;2023-05-07T00:15:37;9.48;;;8.48;;
20336;SDS011;10326;53.660;10.200;2023-05-07T00:18:04;8.85;;;7.95;;
20336;SDS011;10326;53.660;10.200;2023-05-07T00:20:31;8.82;;;8.02;;
20336;SDS011;10326;53.660;10.200;2023-05-07T00:22:58;9.50;;;8.60;;
20336;SDS011;10326;53.660;10.200;2023-05-07T00:25:28;8.88;;;8.05;;
20336;SDS011;10326;53.660;10.200;2023-05-07T00:27:56;9.45;;;8.60;;
20336;SDS011;10326;53.660;10.200;2023-05-07T00:30:28;8.68;;;7.85;;
20336;SDS011;10326;53.660;10.200;2023-05-07T00:32:56;8.88;;;7.97;;
20336;SDS011;10326;53.660;10.200;2023-05-07T00:35:23;9.60;;;8.63;;
20336;SDS011;10326;53.660;10.200;2023-05-07T00:37:50;9.95;;;9.05;;
20336;SDS011;10326;53.660;10.200;2023-05-07T00:40:18;9.88;;;8.98;;
20336;SDS011;10326;53.660;10.200;2023-05-07T00:42:45;10.10;;;9.10;;
20336;SDS011;10326;53.660;10.200;2023-05-07T00:45:15;9.93;;;9.00;;
20336;SDS011;10326;53.660;10.200;2023-05-07T00:47:44;9.90;;;8.95;;
20336;SDS011;10326;53.660;10.200;2023-05-07T00:50:11;9.60;;;8.57;;
20336;SDS011;10326;53.660;10.200;2023-05-07T00:52:39;10.38;;;9.38;;
20336;SDS011;10326;53.660;10.200;2023-05-07T00:55:07;10.15;;;9.25;;
20336;SDS011;10326;53.660;10.200;2023-05-07T00:57:35;9.82;;;8.90;;
20336;SDS011;10326;53.660;10.200;2023-05-07T01:00:04;8.57;;;7.72;;
20336;SDS011;10326;53.660;10.200;2023-05-07T01:02:35;9.52;;;8.63;;
20336;SDS011;10326;53.660;10.200;2023-05-07T01:05:02;9.00;;;8.13;;
20336;SDS011;10326;53.660;10.200;2023-05-07T01:07:34;9.02;;;8.18;;
20336;SDS011;10326;53.660;10.200;2023-05-07T01:10:02;9.32;;;8.52;;
20336;SDS011;10326;53.660;10.200;2023-05-07T01:12:31;9.60;;;8.70;;
20336;SDS011;10326;53.660;10.200;2023-05-07T01:14:59;9.05;;;8.15;;
20336;SDS011;10326;53.660;10.200;2023-05-07T01:17:27;9.32;;;8.38;;
20336;SDS011;10326;53.660;10.200;2023-05-07T01:19:55;9.20;;;8.40;;
20336;SDS011;10326;53.660;10.200;2023-05-07T01:22:28;9.55;;;8.65;;
20336;SDS011;10326;53.660;10.200;2023-05-07T01:24:57;10.13;;;9.13;;
20336;SDS011;10326;53.660;10.200;2023-05-07T01:27:28;9.40;;;8.50;;
20336;SDS011;10326;53.660;10.200;2023-05-07T01:29:56;9.05;;;8.18;;
20336;SDS011;10326;53.660;10.200;2023-05-07T01:32:24;10.30;;;9.10;;
20336;SDS011;10326;53.660;10.200;2023-05-07T01:34:58;9.60;;;8.70;;
20336;SDS011;10326;53.660;10.200;2023-05-07T01:37:29;9.55;;;8.55;;
20336;SDS011;10326;53.660;10.200;2023-05-07T01:39:56;10.18;;;9.23;;
20336;SDS011;10326;53.660;10.200;2023-05-07T01:42:23;10.23;;;9.23;;
20336;SDS011;10326;53.660;10.200;2023-05-07T01:44:51;9.38;;;8.48;;
20336;SDS011;10326;53.660;10.200;2023-05-07T01:47:18;9.50;;;8.13;;
20336;SDS011;10326;53.660;10.200;2023-05-07T01:49:47;8.75;;;7.85;;
20336;SDS011;10326;53.660;10.200;2023-05-07T01:52:14;8.18;;;7.47;;
20336;SDS011;10326;53.660;10.200;2023-05-07T01:54:43;8.52;;;7.72;;
20336;SDS011;10326;53.660;10.200;2023-05-07T01:57:11;8.27;;;7.47;;
20336;SDS011;10326;53.660;10.200;2023-05-07T01:59:38;8.30;;;7.50;;
20336;SDS011;10326;53.660;10.200;2023-05-07T02:02:05;8.38;;;7.57;;
20336;SDS011;10326;53.660;10.200;2023-05-07T02:04:35;8.20;;;7.40;;
20336;SDS011;10326;53.660;10.200;2023-05-07T02:07:02;8.00;;;7.18;;
20336;SDS011;10326;53.660;10.200;2023-05-07T02:09:30;9.38;;;7.90;;
20336;SDS011;10326;53.660;10.200;2023-05-07T02:11:59;9.25;;;8.35;;
20336;SDS011;10326;53.660;10.200;2023-05-07T02:14:26;8.27;;;7.47;;
20336;SDS011;10326;53.660;10.200;2023-05-07T02:16:54;7.93;;;7.13;;
20336;SDS011;10326;53.660;10.200;2023-05-07T02:19:21;8.20;;;7.40;;
20336;SDS011;10326;53.660;10.200;2023-05-07T02:21:49;8.10;;;7.28;;
20336;SDS011;10326;53.660;10.200;2023-05-07T02:24:22;11.18;;;8.65;;
20336;SDS011;10326;53.660;10.200;2023-05-07T02:26:49;8.98;;;8.18;;
20336;SDS011;10326;53.660;10.200;2023-05-07T02:29:18;9.55;;;8.40;;
20336;SDS011;10326;53.660;10.200;2023-05-07T02:31:46;9.60;;;8.68;;
20336;SDS011;10326;53.660;10.200;2023-05-07T02:34:16;9.90;;;8.95;;
20336;SDS011;10326;53.660;10.200;2023-05-07T02:36:44;8.88;;;7.97;;
20336;SDS011;10326;53.660;10.200;2023-05-07T02:39:14;9.13;;;8.25;;
20336;SDS011;10326;53.660;10.200;2023-05-07T02:41:43;9.65;;;8.68;;
20336;SDS011;10326;53.660;10.200;2023-05-07T02:44:10;9.40;;;8.50;;
20336;SDS011;10326;53.660;10.200;2023-05-07T02:46:39;9.30;;;8.40;;
20336;SDS011;10326;53.660;10.200;2023-05-07T02:49:10;9.82;;;8.93;;
20336;SDS011;10326;53.660;10.200;2023-05-07T02:51:37;9.27;;;8.38;;
20336;SDS011;10326;53.660;10.200;2023-05-07T02:54:09;9.20;;;8.27;;
20336;SDS011;10326;53.660;10.200;2023-05-07T02:56:37;9.25;;;8.45;;
20336;SDS011;10326;53.660;10.200;2023-05-07T02:59:04;8.75;;;7.95;;
20336;SDS011;10326;53.660;10.200;2023-05-07T03:01:36;9.27;;;8.43;;
20336;SDS011;10326;53.660;10.200;2023-05-07T03:04:07;8.93;;;8.10;;
20336;SDS011;10326;53.660;10.200;2023-05-07T03:06:34;8.82;;;8.02;;
20336;SDS011;10326;53.660;10.200;2023-05-07T03:09:01;9.52;;;8.63;;
20336;SDS011;10326;53.660;10.200;2023-05-07T03:11:30;8.95;;;8.13;;
20336;SDS011;10326;53.660;10.200;2023-05-07T03:13:57;8.55;;;7.70;;
20336;SDS011;10326;53.660;10.200;2023-05-07T03:16:24;8.85;;;8.00;;
20336;SDS011;10326;53.660;10.200;2023-05-07T03:18:51;9.23;;;8.43;;
20336;SDS011;10326;53.660;10.200;2023-05-07T03:21:20;8.90;;;8.10;;
20336;SDS011;10326;53.660;10.200;2023-05-07T03:23:47;8.50;;;7.70;;
20336;SDS011;10326;53.660;10.200;2023-05-07T03:26:14;9.00;;;8.20;;
20336;SDS011;10326;53.660;10.200;2023-05-07T03:28:43;9.02;;;8.20;;
20336;SDS011;10326;53.660;10.200;2023-05-07T03:31:12;9.07;;;8.18;;
20336;SDS011;10326;53.660;10.200;2023-05-07T03:33:49;9.00;;;8.20;;
20336;SDS011;10326;53.660;10.200;2023-05-07T03:36:18;8.82;;;8.07;;
20336;SDS011;10326;53.660;10.200;2023-05-07T03:38:48;9.40;;;8.55;;
20336;SDS011;10326;53.660;10.200;2023-05-07T03:41:19;8.57;;;7.78;;
20336;SDS011;10326;53.660;10.200;2023-05-07T03:43:46;8.10;;;7.40;;
20336;SDS011;10326;53.660;10.200;2023-05-07T03:46:14;8.38;;;7.65;;
20336;SDS011;10326;53.660;10.200;2023-05-07T03:48:41;7.60;;;6.90;;
20336;SDS011;10326;53.660;10.200;2023-05-07T03:51:10;8.32;;;7.55;;
20336;SDS011;10326;53.660;10.200;2023-05-07T03:53:38;8.35;;;7.65;;
20336;SDS011;10326;53.660;10.200;2023-05-07T03:56:06;7.45;;;6.85;;
20336;SDS011;10326;53.660;10.200;2023-05-07T03:58:36;7.97;;;7.18;;
20336;SDS011;10326;53.660;10.200;2023-05-07T04:01:07;9.02;;;8.15;;
20336;SDS011;10326;53.660;10.200;2023-05-07T04:03:35;8.07;;;7.18;;
20336;SDS011;10326;53.660;10.200;2023-05-07T04:06:03;8.45;;;7.75;;
20336;SDS011;10326;53.660;10.200;2023-05-07T04:08:33;8.18;;;7.43;;
20336;SDS011;10326;53.660;10.200;2023-05-07T04:11:03;8.15;;;7.35;;
20336;SDS011;10326;53.660;10.200;2023-05-07T04:13:32;8.30;;;7.50;;
20336;SDS011;10326;53.660;10.200;2023-05-07T04:16:02;8.18;;;7.47;;
20336;SDS011;10326;53.660;10.200;2023-05-07T04:18:33;8.18;;;7.40;;
20336;SDS011;10326;53.660;10.200;2023-05-07T04:21:00;8.63;;;7.82;;
20336;SDS011;10326;53.660;10.200;2023-05-07T04:23:28;8.82;;;7.93;;
20336;SDS011;10326;53.660;10.200;2023-05-07T04:25:58;7.47;;;6.78;;
20336;SDS011;10326;53.660;10.200;2023-05-07T04:28:35;8.07;;;7.30;;
20336;SDS011;10326;53.660;10.200;2023-05-07T04:31:03;8.02;;;7.25;;
20336;SDS011;10326;53.660;10.200;2023-05-07T04:33:32;7.45;;;6.75;;
20336;SDS011;10326;53.660;10.200;2023-05-07T04:36:01;8.52;;;7.72;;
20336;SDS011;10326;53.660;10.200;2023-05-07T04:38:32;7.60;;;6.80;;
20336;SDS011;10326;53.660;10.200;2023-05-07T04:41:02;7.60;;;6.90;;
20336;SDS011;10326;53.660;10.200;2023-05-07T04:43:33;7.53;;;6.82;;
20336;SDS011;10326;53.660;10.200;2023-05-07T04:46:01;7.78;;;7.05;;
20336;SDS011;10326;53.660;10.200;2023-05-07T04:48:30;7.47;;;6.78;;
20336;SDS011;10326;53.660;10.200;2023-05-07T04:50:58;7.78;;;7.07;;
20336;SDS011;10326;53.660;10.200;2023-05-07T04:53:25;7.05;;;6.45;;
20336;SDS011;10326;53.660;10.200;2023-05-07T04:55:55;7.72;;;6.93;;
20336;SDS011;10326;53.660;10.200;2023-05-07T04:58:24;7.25;;;6.65;;
20336;SDS011;10326;53.660;10.200;2023-05-07T05:00:53;7.85;;;7.10;;
20336;SDS011;10326;53.660;10.200;2023-05-07T05:03:21;7.60;;;6.90;;
20336;SDS011;10326;53.660;10.200;2023-05-07T05:05:49;7.40;;;6.70;;
20336;SDS011;10326;53.660;10.200;2023-05-07T05:08:17;7.05;;;6.30;;
20336;SDS011;10326;53.660;10.200;2023-05-07T05:10:44;8.02;;;7.22;;
20336;SDS011;10326;53.660;10.200;2023-05-07T05:13:13;7.82;;;7.03;;
20336;SDS011;10326;53.660;10.200;2023-05-07T05:15:41;8.15;;;7.20;;
20336;SDS011;10326;53.660;10.200;2023-05-07T05:18:11;7.63;;;6.93;;
20336;SDS011;10326;53.660;10.200;2023-05-07T05:20:39;7.60;;;6.90;;
20336;SDS011;10326;53.660;10.200;2023-05-07T05:23:07;7.25;;;6.55;;
20336;SDS011;10326;53.660;10.200;2023-05-07T05:25:35;7.93;;;7.13;;
20336;SDS011;10326;53.660;10.200;2023-05-07T05:28:02;7.43;;;6.72;;
20336;SDS011;10326;53.660;10.200;2023-05-07T05:30:32;9.13;;;6.70;;
20336;SDS011;10326;53.660;10.200;2023-05-07T05:33:01;7.90;;;7.20;;
20336;SDS011;10326;53.660;10.200;2023-05-07T05:35:30;7.70;;;6.93;;
20336;SDS011;10326;53.660;10.200;2023-05-07T05:38:01;7.45;;;6.70;;
20336;SDS011;10326;53.660;10.200;2023-05-07T05:40:29;7.38;;;6.70;;
20336;SDS011;10326;53.660;10.200;2023-05-07T05:42:57;7.28;;;6.55;;
20336;SDS011;10326;53.660;10.200;2023-05-07T05:45:24;7.65;;;6.95;;
20336;SDS011;10326;53.660;10.200;2023-05-07T05:47:52;7.47;;;6.78;;
20336;SDS011;10326;53.660;10.200;2023-05-07T05:50:19;7.50;;;6.82;;
20336;SDS011;10326;53.660;10.200;2023-05-07T05:52:48;7.45;;;6.75;;
20336;SDS011;10326;53.660;10.200;2023-05-07T05:55:17;7.45;;;6.55;;
20336;SDS011;10326;53.660;10.200;2023-05-07T05:57:46;7.43;;;6.72;;
20336;SDS011;10326;53.660;10.200;2023-05-07T06:00:13;7.65;;;6.85;;
20336;SDS011;10326;53.660;10.200;2023-05-07T06:02:44;7.65;;;6.70;;
20336;SDS011;10326;53.660;10.200;2023-05-07T06:05:16;7.13;;;6.53;;
20336;SDS011;10326;53.660;10.200;2023-05-07T06:07:46;6.70;;;6.10;;
20336;SDS011;10326;53.660;10.200;2023-05-07T06:10:15;6.80;;;6.07;;
20336;SDS011;10326;53.660;10.200;2023-05-07T06:12:42;6.75;;;6.05;;
20336;SDS011;10326;53.660;10.200;2023-05-07T06:15:10;7.28;;;6.68;;
20336;SDS011;10326;53.660;10.200;2023-05-07T06:17:38;6.95;;;6.35;;
20336;SDS011;10326;53.660;10.200;2023-05-07T06:20:06;6.22;;;5.72;;
20336;SDS011;10326;53.660;10.200;2023-05-07T06:22:34;6.40;;;5.80;;
20336;SDS011;10326;53.660;10.200;2023-05-07T06:25:02;6.97;;;6.38;;
20336;SDS011;10326;53.660;10.200;2023-05-07T06:27:32;6.25;;;5.75;;
20336;SDS011;10326;53.660;10.200;2023-05-07T06:30:00;6.88;;;6.28;;
20336;SDS011;10326;53.660;10.200;2023-05-07T06:32:28;6.07;;;5.57;;
20336;SDS011;10326;53.660;10.200;2023-05-07T06:34:55;6.15;;;5.65;;
20336;SDS011;10326;53.660;10.200;2023-05-07T06:37:23;7.13;;;6.53;;
20336;SDS011;10326;53.660;10.200;2023-05-07T06:39:54;6.47;;;5.88;;
20336;SDS011;10326;53.660;10.200;2023-05-07T06:42:21;6.32;;;5.75;;
20336;SDS011;10326;53.660;10.200;2023-05-07T06:44:50;5.75;;;5.25;;
20336;SDS011;10326;53.660;10.200;2023-05-07T06:47:18;5.78;;;5.28;;
20336;SDS011;10326;53.660;10.200;2023-05-07T06:49:49;5.57;;;5.07;;
20336;SDS011;10326;53.660;10.200;2023-05-07T06:52:19;5.68;;;5.18;;
20336;SDS011;10326;53.660;10.200;2023-05-07T06:54:49;5.82;;;5.32;;
20336;SDS011;10326;53.660;10.200;2023-05-07T06:57:19;6.10;;;5.60;;
20336;SDS011;10326;53.660;10.200;2023-05-07T06:59:46;5.97;;;5.47;;
20336;SDS011;10326;53.660;10.200;2023-05-07T07:02:14;5.72;;;5.22;;
20336;SDS011;10326;53.660;10.200;2023-05-07T07:04:42;6.60;;;6.03;;
20336;SDS011;10326;53.660;10.200;2023-05-07T07:07:10;6.10;;;5.50;;
20336;SDS011;10326;53.660;10.200;2023-05-07T07:09:39;6.25;;;5.53;;
20336;SDS011;10326;53.660;10.200;2023-05-07T07:12:08;5.75;;;5.25;;
20336;SDS011;10326;53.660;10.200;2023-05-07T07:14:37;6.10;;;5.60;;
20336;SDS011;10326;53.660;10.200;2023-05-07T07:17:04;5.90;;;5.40;;
20336;SDS011;10326;53.660;10.200;2023-05-07T07:19:34;5.95;;;5.45;;
20336;SDS011;10326;53.660;10.200;2023-05-07T07:22:02;6.38;;;5.82;;
20336;SDS011;10326;53.660;10.200;2023-05-07T07:24:31;6.05;;;5.55;;
20336;SDS011;10326;53.660;10.200;2023-05-07T07:27:02;5.75;;;5.25;;
20336;SDS011;10326;53.660;10.200;2023-05-07T07:29:32;6.15;;;5.55;;
20336;SDS011;10326;53.660;10.200;2023-05-07T07:32:00;5.80;;;5.30;;
20336;SDS011;10326;53.660;10.200;2023-05-07T07:34:28;6.10;;;5.60;;
20336;SDS011;10326;53.660;10.200;2023-05-07T07:36:57;5.63;;;5.13;;
20336;SDS011;10326;53.660;10.200;2023-05-07T07:39:30;5.88;;;5.35;;
20336;SDS011;10326;53.660;10.200;2023-05-07T07:41:59;5.90;;;5.32;;
20336;SDS011;10326;53.660;10.200;2023-05-07T07:44:28;5.90;;;5.35;;
20336;SDS011;10326;53.660;10.200;2023-05-07T07:46:59;4.90;;;4.50;;
20336;SDS011;10326;53.660;10.200;2023-05-07T07:49:27;5.45;;;4.95;;
20336;SDS011;10326;53.660;10.200;2023-05-07T07:51:58;5.18;;;4.68;;
20336;SDS011;10326;53.660;10.200;2023-05-07T07:54:27;5.18;;;4.78;;
20336;SDS011;10326;53.660;10.200;2023-05-07T07:56:55;5.28;;;4.88;;
20336;SDS011;10326;53.660;10.200;2023-05-07T07:59:22;5.35;;;4.78;;
20336;SDS011;10326;53.660;10.200;2023-05-07T08:01:50;5.32;;;4.82;;
20336;SDS011;10326;53.660;10.200;2023-05-07T08:04:21;4.70;;;4.30;;
20336;SDS011;10326;53.660;10.200;2023-05-07T08:06:48;4.55;;;4.13;;
20336;SDS011;10326;53.660;10.200;2023-05-07T08:09:18;5.18;;;4.68;;
20336;SDS011;10326;53.660;10.200;2023-05-07T08:11:47;5.00;;;4.60;;
20336;SDS011;10326;53.660;10.200;2023-05-07T08:14:14;4.95;;;4.43;;
20336;SDS011;10326;53.660;10.200;2023-05-07T08:16:44;5.63;;;5.22;;
20336;SDS011;10326;53.660;10.200;2023-05-07T08:19:12;4.93;;;4.53;;
20336;SDS011;10326;53.660;10.200;2023-05-07T08:21:40;5.40;;;5.00;;
20336;SDS011;10326;53.660;10.200;2023-05-07T08:24:09;4.78;;;4.47;;
20336;SDS011;10326;53.660;10.200;2023-05-07T08:26:38;4.97;;;4.57;;
20336;SDS011;10326;53.660;10.200;2023-05-07T08:29:06;5.28;;;4.88;;
20336;SDS011;10326;53.660;10.200;2023-05-07T08:31:34;4.95;;;4.47;;
20336;SDS011;10326;53.660;10.200;2023-05-07T08:34:02;5.40;;;4.97;;
20336;SDS011;10326;53.660;10.200;2023-05-07T08:36:30;5.10;;;4.70;;
20336;SDS011;10326;53.660;10.200;2023-05-07T08:38:58;5.20;;;4.75;;
20336;SDS011;10326;53.660;10.200;2023-05-07T08:41:26;5.00;;;4.60;;
20336;SDS011;10326;53.660;10.200;2023-05-07T08:43:57;4.88;;;4.40;;
20336;SDS011;10326;53.660;10.200;2023-05-07T08:46:26;5.00;;;4.60;;
20336;SDS011;10326;53.660;10.200;2023-05-07T08:48:58;4.90;;;4.00;;
20336;SDS011;10326;53.660;10.200;2023-05-07T08:51:26;4.88;;;4.38;;
20336;SDS011;10326;53.660;10.200;2023-05-07T08:53:54;4.90;;;4.50;;
20336;SDS011;10326;53.660;10.200;2023-05-07T08:56:26;4.28;;;3.88;;
20336;SDS011;10326;53.660;10.200;2023-05-07T08:58:55;4.72;;;4.32;;
20336;SDS011;10326;53.660;10.200;2023-05-07T09:01:25;4.45;;;4.05;;
20336;SDS011;10326;53.660;10.200;2023-05-07T09:03:54;4.78;;;4.38;;
20336;SDS011;10326;53.660;10.200;2023-05-07T09:06:23;5.47;;;4.47;;
20336;SDS011;10326;53.660;10.200;2023-05-07T09:08:52;4.40;;;4.10;;
20336;SDS011;10326;53.660;10.200;2023-05-07T09:11:25;5.00;;;4.43;;
20336;SDS011;10326;53.660;10.200;2023-05-07T09:13:57;4.40;;;4.00;;
20336;SDS011;10326;53.660;10.200;2023-05-07T09:16:28;4.95;;;4.55;;
20336;SDS011;10326;53.660;10.200;2023-05-07T09:18:59;4.80;;;4.40;;
20336;SDS011;10326;53.660;10.200;2023-05-07T09:21:27;4.45;;;4.05;;
20336;SDS011;10326;53.660;10.200;2023-05-07T09:23:57;4.30;;;3.90;;
20336;SDS011;10326;53.660;10.200;2023-05-07T09:26:32;4.05;;;3.75;;
20336;SDS011;10326;53.660;10.200;2023-05-07T09:29:02;4.20;;;3.90;;
20336;SDS011;10326;53.660;10.200;2023-05-07T09:31:29;4.70;;;4.30;;
20336;SDS011;10326;53.660;10.200;2023-05-07T09:33:57;4.43;;;4.03;;
20336;SDS011;10326;53.660;10.200;2023-05-07T09:36:28;3.83;;;3.53;;
20336;SDS011;10326;53.660;10.200;2023-05-07T09:38:58;4.20;;;3.90;;
20336;SDS011;10326;53.660;10.200;2023-05-07T09:41:26;4.22;;;3.92;;
20336;SDS011;10326;53.660;10.200;2023-05-07T09:44:08;4.50;;;4.20;;
20336;SDS011;10326;53.660;10.200;2023-05-07T09:46:42;3.90;;;3.60;;
20336;SDS011;10326;53.660;10.200;2023-05-07T09:49:20;4.43;;;4.03;;
20336;SDS011;10326;53.660;10.200;2023-05-07T09:51:57;4.28;;;3.67;;
20336;SDS011;10326;53.660;10.200;2023-05-07T09:54:30;4.10;;;3.72;;
20336;SDS011;10326;53.660;10.200;2023-05-07T09:57:00;4.93;;;4.53;;
20336;SDS011;10326;53.660;10.200;2023-05-07T09:59:31;3.88;;;3.58;;
20336;SDS011;10326;53.660;10.200;2023-05-07T10:02:02;5.00;;;4.50;;
20336;SDS011;10326;53.660;10.200;2023-05-07T10:04:35;4.65;;;4.25;;
20336;SDS011;10326;53.660;10.200;2023-05-07T10:07:04;4.13;;;3.72;;
20336;SDS011;10326;53.660;10.200;2023-05-07T10:09:33;4.70;;;4.30;;
20336;SDS011;10326;53.660;10.200;2023-05-07T10:12:06;4.47;;;3.67;;
20336;SDS011;10326;53.660;10.200;2023-05-07T10:14:35;4.25;;;3.85;;
20336;SDS011;10326;53.660;10.200;2023-05-07T10:17:04;4.60;;;4.20;;
20336;SDS011;10326;53.660;10.200;2023-05-07T10:19:32;4.53;;;4.13;;
20336;SDS011;10326;53.660;10.200;2023-05-07T10:22:03;4.25;;;3.95;;
20336;SDS011;10326;53.660;10.200;2023-05-07T10:24:36;4.82;;;3.65;;
20336;SDS011;10326;53.660;10.200;2023-05-07T10:27:10;4.63;;;4.32;;
20336;SDS011;10326;53.660;10.200;2023-05-07T10:29:45;4.30;;;3.90;;
20336;SDS011;10326;53.660;10.200;2023-05-07T10:32:27;3.90;;;3.60;;
20336;SDS011;10326;53.660;10.200;2023-05-07T10:35:06;4.43;;;3.72;;
20336;SDS011;10326;53.660;10.200;2023-05-07T10:37:40;3.78;;;3.47;;
20336;SDS011;10326;53.660;10.200;2023-05-07T10:40:08;3.55;;;3.35;;
20336;SDS011;10326;53.660;10.200;2023-05-07T10:42:38;3.55;;;3.25;;
20336;SDS011;10326;53.660;10.200;2023-05-07T10:45:14;3.40;;;3.20;;
20336;SDS011;10326;53.660;10.200;2023-05-07T10:50:36;3.90;;;3.60;;
20336;SDS011;10326;53.660;10.200;2023-05-07T10:53:21;3.50;;;3.20;;
20336;SDS011;10326;53.660;10.200;2023-05-07T10:56:23;3.53;;;3.22;;
20336;SDS011;10326;53.660;10.200;2023-05-07T10:59:33;3.10;;;2.90;;
20336;SDS011;10326;53.660;10.200;2023-05-07T11:02:16;3.35;;;3.03;;
20336;SDS011;10326;53.660;10.200;2023-05-07T11:04:58;3.20;;;3.00;;
20336;SDS011;10326;53.660;10.200;2023-05-07T11:07:53;3.17;;;2.90;;
20336;SDS011;10326;53.660;10.200;2023-05-07T11:10:22;2.90;;;2.70;;
20336;SDS011;10326;53.660;10.200;2023-05-07T11:12:56;3.50;;;3.22;;
20336;SDS011;10326;53.660;10.200;2023-05-07T11:15:42;3.22;;;3.03;;
20336;SDS011;10326;53.660;10.200;2023-05-07T11:18:47;3.35;;;3.05;;
20336;SDS011;10326;53.660;10.200;2023-05-07T11:21:32;3.08;;;2.63;;
20336;SDS011;10326;53.660;10.200;2023-05-07T11:24:27;3.40;;;3.10;;
20336;SDS011;10326;53.660;10.200;2023-05-07T11:26:58;2.88;;;2.67;;
20336;SDS011;10326;53.660;10.200;2023-05-07T11:29:26;3.38;;;3.08;;
20336;SDS011;10326;53.660;10.200;2023-05-07T11:32:00;3.05;;;2.85;;
20336;SDS011;10326;53.660;10.200;2023-05-07T11:34:35;3.03;;;2.83;;
20336;SDS011;10326;53.660;10.200;2023-05-07T11:37:03;2.88;;;2.67;;
20336;SDS011;10326;53.660;10.200;2023-05-07T11:39:46;3.67;;;2.90;;
20336;SDS011;10326;53.660;10.200;2023-05-07T11:42:25;3.15;;;2.85;;
20336;SDS011;10326;53.660;10.200;2023-05-07T11:44:54;2.63;;;2.42;;
20336;SDS011;10326;53.660;10.200;2023-05-07T11:47:21;2.60;;;2.40;;
20336;SDS011;10326;53.660;10.200;2023-05-07T11:49:51;2.85;;;2.65;;
20336;SDS011;10326;53.660;10.200;2023-05-07T11:52:20;2.50;;;2.30;;
20336;SDS011;10326;53.660;10.200;2023-05-07T11:54:49;2.67;;;2.45;;
20336;SDS011;10326;53.660;10.200;2023-05-07T11:57:17;2.30;;;2.20;;
20336;SDS011;10326;53.660;10.200;2023-05-07T11:59:45;2.67;;;2.47;;
20336;SDS011;10326;53.660;10.200;2023-05-07T12:02:13;2.15;;;2.05;;
20336;SDS011;10326;53.660;10.200;2023-05-07T12:04:41;2.30;;;2.20;;
20336;SDS011;10326;53.660;10.200;2023-05-07T12:07:14;2.50;;;2.30;;
20336;SDS011;10326;53.660;10.200;2023-05-07T12:09:42;2.15;;;1.80;;
20336;SDS011;10326;53.660;10.200;2023-05-07T12:12:10;2.20;;;2.10;;
20336;SDS011;10326;53.660;10.200;2023-05-07T12:14:40;2.47;;;2.08;;
20336;SDS011;10326;53.660;10.200;2023-05-07T12:17:09;2.25;;;2.05;;
20336;SDS011;10326;53.660;10.200;2023-05-07T12:19:38;2.30;;;2.10;;
20336;SDS011;10326;53.660;10.200;2023-05-07T12:22:07;2.28;;;2.10;;
20336;SDS011;10326;53.660;10.200;2023-05-07T12:24:46;2.38;;;2.28;;
20336;SDS011;10326;53.660;10.200;2023-05-07T12:27:15;2.25;;;2.05;;
20336;SDS011;10326;53.660;10.200;2023-05-07T12:29:44;2.08;;;1.98;;
20336;SDS011;10326;53.660;10.200;2023-05-07T12:32:12;2.28;;;2.08;;
20336;SDS011;10326;53.660;10.200;2023-05-07T12:34:42;1.95;;;1.80;;
20336;SDS011;10326;53.660;10.200;2023-05-07T12:37:09;2.10;;;1.90;;
20336;SDS011;10326;53.660;10.200;2023-05-07T12:39:37;3.65;;;2.00;;
20336;SDS011;10326;53.660;10.200;2023-05-07T12:42:06;2.35;;;2.15;;
20336;SDS011;10326;53.660;10.200;2023-05-07T12:44:34;2.40;;;1.90;;
20336;SDS011;10326;53.660;10.200;2023-05-07T12:47:01;2.00;;;1.90;;
20336;SDS011;10326;53.660;10.200;2023-05-07T12:49:29;1.90;;;1.80;;
20336;SDS011;10326;53.660;10.200;2023-05-07T12:51:57;2.30;;;2.10;;
20336;SDS011;10326;53.660;10.200;2023-05-07T12:54:29;2.20;;;2.00;;
20336;SDS011;10326;53.660;10.200;2023-05-07T12:57:00;2.28;;;1.90;;
20336;SDS011;10326;53.660;10.200;2023-05-07T12:59:35;1.80;;;1.70;;
20336;SDS011;10326;53.660;10.200;2023-05-07T13:02:05;1.83;;;1.70;;
20336;SDS011;10326;53.660;10.200;2023-05-07T13:04:35;2.55;;;2.03;;
20336;SDS011;10326;53.660;10.200;2023-05-07T13:07:02;2.10;;;1.90;;
20336;SDS011;10326;53.660;10.200;2023-05-07T13:09:30;2.13;;;1.92;;
20336;SDS011;10326;53.660;10.200;2023-05-07T13:11:58;1.85;;;1.75;;
20336;SDS011;10326;53.660;10.200;2023-05-07T13:14:26;2.00;;;1.90;;
20336;SDS011;10326;53.660;10.200;2023-05-07T13:16:55;1.80;;;1.70;;
20336;SDS011;10326;53.660;10.200;2023-05-07T13:19:23;1.70;;;1.60;;
20336;SDS011;10326;53.660;10.200;2023-05-07T13:21:50;1.73;;;1.52;;
20336;SDS011;10326;53.660;10.200;2023-05-07T13:24:17;2.15;;;1.70;;
20336;SDS011;10326;53.660;10.200;2023-05-07T13:26:44;1.65;;;1.55;;
20336;SDS011;10326;53.660;10.200;2023-05-07T13:29:12;2.92;;;2.03;;
20336;SDS011;10326;53.660;10.200;2023-05-07T13:31:41;2.38;;;1.70;;
20336;SDS011;10326;53.660;10.200;2023-05-07T13:34:10;2.05;;;1.75;;
20336;SDS011;10326;53.660;10.200;2023-05-07T13:36:37;2.15;;;1.73;;
20336;SDS011;10326;53.660;10.200;2023-05-07T13:39:07;1.75;;;1.65;;
20336;SDS011;10326;53.660;10.200;2023-05-07T13:41:35;3.72;;;2.03;;
20336;SDS011;10326;53.660;10.200;2023-05-07T13:44:02;1.73;;;1.63;;
20336;SDS011;10326;53.660;10.200;2023-05-07T13:46:29;1.98;;;1.88;;
20336;SDS011;10326;53.660;10.200;2023-05-07T13:48:56;1.90;;;1.60;;
20336;SDS011;10326;53.660;10.200;2023-05-07T13:51:25;2.03;;;1.70;;
20336;SDS011;10326;53.660;10.200;2023-05-07T13:53:52;1.92;;;1.80;;
20336;SDS011;10326;53.660;10.200;2023-05-07T13:56:19;2.60;;;1.50;;
20336;SDS011;10326;53.660;10.200;2023-05-07T13:58:46;1.80;;;1.60;;
20336;SDS011;10326;53.660;10.200;2023-05-07T14:01:14;1.67;;;1.58;;
20336;SDS011;10326;53.660;10.200;2023-05-07T14:03:41;1.50;;;1.40;;
20336;SDS011;10326;53.660;10.200;2023-05-07T14:06:08;1.77;;;1.40;;
20336;SDS011;10326;53.660;10.200;2023-05-07T14:08:37;1.95;;;1.60;;
20336;SDS011;10326;53.660;10.200;2023-05-07T14:11:05;1.67;;;1.58;;
20336;SDS011;10326;53.660;10.200;2023-05-07T14:13:32;1.50;;;1.40;;
20336;SDS011;10326;53.660;10.200;2023-05-07T14:16:00;1.58;;;1.48;;
20336;SDS011;10326;53.660;10.200;2023-05-07T14:18:27;1.70;;;1.60;;
20336;SDS011;10326;53.660;10.200;2023-05-07T14:20:54;2.08;;;1.90;;
20336;SDS011;10326;53.660;10.200;2023-05-07T14:23:22;1.42;;;1.33;;
20336;SDS011;10326;53.660;10.200;2023-05-07T14:25:52;2.03;;;1.60;;
20336;SDS011;10326;53.660;10.200;2023-05-07T14:28:21;1.73;;;1.50;;
20336;SDS011;10326;53.660;10.200;2023-05-07T14:30:49;2.50;;;1.67;;
20336;SDS011;10326;53.660;10.200;2023-05-07T14:33:16;1.90;;;1.67;;
20336;SDS011;10326;53.660;10.200;2023-05-07T14:35:43;2.05;;;1.60;;
20336;SDS011;10326;53.660;10.200;2023-05-07T14:38:13;1.75;;;1.65;;
20336;SDS011;10326;53.660;10.200;2023-05-07T14:40:41;1.60;;;1.50;;
20336;SDS011;10326;53.660;10.200;2023-05-07T14:43:09;1.52;;;1.42;;
20336;SDS011;10326;53.660;10.200;2023-05-07T14:45:36;1.42;;;1.33;;
20336;SDS011;10326;53.660;10.200;2023-05-07T14:48:04;1.85;;;1.75;;
20336;SDS011;10326;53.660;10.200;2023-05-07T14:50:31;2.05;;;1.60;;